createdAt,value
2022-10-04T03:59:30.765Z,73.33
2022-10-04T04:02:45.833Z,73.33
2022-10-04T04:05:53.316Z,74.66
2022-10-04T04:08:57.374Z,75.66
2022-10-04T04:12:02.689Z,74.56
2022-10-04T04:15:10.038Z,73.97
2022-10-04T04:18:19.950Z,74.37
2022-10-04T04:21:26.074Z,74.50
2022-10-04T04:24:32.116Z,74.77
2022-10-04T04:27:38.565Z,74.55
2022-10-04T04:30:46.394Z,74.47
2022-10-04T04:34:00.389Z,74.75
2022-10-04T04:37:04.983Z,75.05
2022-10-04T04:40:22.170Z,74.31
2022-10-04T04:43:27.078Z,74.69
2022-10-04T04:46:30.663Z,74.37
2022-10-04T04:49:33.809Z,74.59
2022-10-04T04:52:37.391Z,75.05
2022-10-04T04:56:02.357Z,75.16
2022-10-04T04:59:08.037Z,74.94
2022-10-04T05:02:37.446Z,75.19
2022-10-04T05:05:45.305Z,74.86
2022-10-04T05:08:50.489Z,74.55
2022-10-04T05:11:57.943Z,74.72
2022-10-04T05:15:00.234Z,74.75
2022-10-04T05:18:28.182Z,75.29
2022-10-04T05:21:32.643Z,75.28
2022-10-04T05:24:38.566Z,75.31
2022-10-04T05:27:44.832Z,75.83
2022-10-04T05:31:11.493Z,75.08
2022-10-04T05:34:27.743Z,75.12
2022-10-04T05:37:58.913Z,75.39
2022-10-04T05:41:13.552Z,75.57
2022-10-04T05:44:45.780Z,75.94
2022-10-04T05:47:50.941Z,76.20
2022-10-04T05:50:52.974Z,76.26
2022-10-04T05:53:59.631Z,75.97
2022-10-04T05:57:25.466Z,75.99
2022-10-04T06:00:42.051Z,76.80
2022-10-04T06:04:12.551Z,76.42
2022-10-04T06:07:30.378Z,77.02
2022-10-04T06:11:03.713Z,76.42
2022-10-04T06:14:24.073Z,76.86
2022-10-04T06:17:48.409Z,77.23
2022-10-04T06:21:12.010Z,76.88
2022-10-04T06:24:26.162Z,77.32
2022-10-04T06:27:46.581Z,77.09
2022-10-04T06:31:30.377Z,77.23
2022-10-04T06:34:45.226Z,76.93
2022-10-04T06:38:15.367Z,77.08
2022-10-04T06:41:48.442Z,76.75
2022-10-04T06:45:09.406Z,76.65
2022-10-04T06:48:43.119Z,77.14
2022-10-04T06:52:06.782Z,77.44
2022-10-04T06:55:27.270Z,77.96
2022-10-04T06:59:00.757Z,77.58
2022-10-04T07:02:15.089Z,77.43
2022-10-04T07:05:30.694Z,77.11
2022-10-04T07:08:47.907Z,77.63
2022-10-04T07:11:58.631Z,77.92
2022-10-04T07:15:08.262Z,78.13
2022-10-04T07:18:18.401Z,77.96
2022-10-04T07:21:22.252Z,77.98
2022-10-04T07:24:33.837Z,77.05
2022-10-04T07:27:41.709Z,77.58
2022-10-04T07:30:56.309Z,77.63
2022-10-04T07:34:03.757Z,76.76
2022-10-04T07:37:12.782Z,76.95
2022-10-04T07:40:25.388Z,76.29
2022-10-04T07:43:33.744Z,75.88
2022-10-04T07:46:44.468Z,75.73
2022-10-04T07:49:50.301Z,75.17
2022-10-04T07:52:58.185Z,74.31
2022-10-04T07:56:25.513Z,74.00
2022-10-04T07:59:57.629Z,73.78
2022-10-04T08:03:42.188Z,72.36
2022-10-04T08:06:59.331Z,72.31
2022-10-04T08:10:25.748Z,71.48
2022-10-04T08:14:05.795Z,70.02
2022-10-04T08:17:32.191Z,70.16
2022-10-04T08:20:49.550Z,68.53
2022-10-04T08:24:06.603Z,66.93
2022-10-04T08:27:30.417Z,65.63
2022-10-04T08:30:52.500Z,66.40
2022-10-04T08:34:08.575Z,64.92
2022-10-04T08:37:44.666Z,65.84
2022-10-04T08:40:50.041Z,64.04
2022-10-04T08:44:23.135Z,64.23
2022-10-04T08:47:44.290Z,63.72
2022-10-04T08:51:06.258Z,64.29
2022-10-04T08:54:14.930Z,64.91
2022-10-04T08:57:35.224Z,63.39
2022-10-04T09:00:56.701Z,63.13
2022-10-04T09:04:23.812Z,64.10
2022-10-04T09:07:58.055Z,64.23
2022-10-04T09:11:29.947Z,63.75
2022-10-04T09:14:32.236Z,62.59
2022-10-04T09:17:50.859Z,63.11
2022-10-04T09:21:11.335Z,63.78
2022-10-04T09:24:49.566Z,62.53
2022-10-04T09:28:13.158Z,60.05
2022-10-04T09:31:37.344Z,60.61
2022-10-04T09:34:39.683Z,60.03
2022-10-04T09:38:20.022Z,59.86
2022-10-04T09:41:44.222Z,60.65
2022-10-04T09:44:57.101Z,60.59
2022-10-04T09:48:16.913Z,60.95
2022-10-04T09:51:56.419Z,60.36
2022-10-04T09:55:07.883Z,60.38
2022-10-04T09:58:19.166Z,59.01
2022-10-04T10:01:42.929Z,58.15
2022-10-04T10:05:04.205Z,61.03
2022-10-04T10:08:18.013Z,58.77
2022-10-04T10:12:26.439Z,58.42
2022-10-04T10:16:03.664Z,58.74
2022-10-04T10:19:32.721Z,58.31
2022-10-04T10:22:59.933Z,59.89
2022-10-04T10:26:23.967Z,59.99
2022-10-04T10:29:35.805Z,60.16
2022-10-04T10:32:59.750Z,59.45
2022-10-04T10:36:13.888Z,59.96
2022-10-04T10:39:16.098Z,59.58
2022-10-04T10:42:37.594Z,60.82
2022-10-04T10:46:27.130Z,60.99
2022-10-04T10:50:08.966Z,58.34
2022-10-04T10:53:20.413Z,58.89
2022-10-04T10:56:52.600Z,58.14
2022-10-04T11:00:05.380Z,58.74
2022-10-04T11:03:43.362Z,58.53
2022-10-04T11:07:00.760Z,60.66
2022-10-04T11:10:21.485Z,58.07
2022-10-04T11:13:59.144Z,57.26
2022-10-04T11:17:10.411Z,56.93
2022-10-04T11:20:28.040Z,57.53
2022-10-04T11:23:59.574Z,57.28
2022-10-04T11:27:15.871Z,56.58
2022-10-04T11:30:39.960Z,57.85
2022-10-04T11:33:55.511Z,56.06
2022-10-04T11:37:21.138Z,56.03
2022-10-04T11:40:23.617Z,55.27
2022-10-04T11:43:38.066Z,56.31
2022-10-04T11:46:44.186Z,56.86
2022-10-04T11:50:15.719Z,56.80
2022-10-04T11:53:54.681Z,55.30
2022-10-04T11:57:11.683Z,57.48
2022-10-04T12:00:20.603Z,57.20
2022-10-04T12:03:55.111Z,58.25
2022-10-04T12:07:08.240Z,59.21
2022-10-04T12:10:24.506Z,60.62
2022-10-04T12:13:32.473Z,60.22
2022-10-04T12:16:56.608Z,60.24
2022-10-04T12:20:28.664Z,61.35
2022-10-04T12:23:56.055Z,62.82
2022-10-04T12:27:14.605Z,61.23
2022-10-04T12:30:22.534Z,60.11
2022-10-04T12:33:37.243Z,59.60
2022-10-04T12:37:00.337Z,55.34
2022-10-04T12:40:16.973Z,55.88
2022-10-04T12:43:32.797Z,56.63
2022-10-04T12:47:04.046Z,58.99
2022-10-04T12:50:19.670Z,60.92
2022-10-04T12:53:55.575Z,58.61
2022-10-04T12:57:20.125Z,58.65
2022-10-04T13:00:24.939Z,56.20
2022-10-04T13:03:41.929Z,56.43
2022-10-04T13:06:53.257Z,56.10
2022-10-04T13:10:24.161Z,56.04
2022-10-04T13:13:41.227Z,53.86
2022-10-04T13:17:34.065Z,54.54
2022-10-04T13:20:56.216Z,54.06
2022-10-04T13:24:07.180Z,53.22
2022-10-04T13:27:19.306Z,53.02
2022-10-04T13:30:27.945Z,52.94
2022-10-04T13:33:42.915Z,53.56
2022-10-04T13:36:51.900Z,53.69
2022-10-04T13:40:32.598Z,53.44
2022-10-04T13:43:37.554Z,53.74
2022-10-04T13:47:10.745Z,53.87
2022-10-04T13:50:32.261Z,53.64
2022-10-04T13:54:04.983Z,54.00
2022-10-04T13:57:16.883Z,54.62
2022-10-04T14:00:58.611Z,53.93
2022-10-04T14:04:14.366Z,52.04
2022-10-04T14:07:44.570Z,51.95
2022-10-04T14:11:21.923Z,51.95
2022-10-04T14:14:52.158Z,56.99
2022-10-04T14:18:10.369Z,52.66
2022-10-04T14:21:18.756Z,53.58
2022-10-04T14:24:40.538Z,52.71
2022-10-04T14:27:54.673Z,52.77
2022-10-04T14:31:42.193Z,53.85
2022-10-04T14:34:59.202Z,53.43
2022-10-04T14:38:26.625Z,54.89
2022-10-04T14:42:02.706Z,54.46
2022-10-04T14:45:32.817Z,53.22
2022-10-04T14:48:58.897Z,55.26
2022-10-04T14:52:18.237Z,53.95
2022-10-04T14:55:38.187Z,54.26
2022-10-04T14:59:08.053Z,55.58
2022-10-04T15:02:33.447Z,54.95
2022-10-04T15:05:44.035Z,55.40
2022-10-04T15:08:45.979Z,55.23
2022-10-04T15:12:36.362Z,55.62
2022-10-04T15:16:13.897Z,56.44
2022-10-04T15:19:22.548Z,56.08
2022-10-04T15:22:41.349Z,55.68
2022-10-04T15:25:48.992Z,56.33
2022-10-04T15:28:53.783Z,55.64
2022-10-04T15:32:20.404Z,56.22
2022-10-04T15:35:32.957Z,55.45
2022-10-04T15:39:04.843Z,56.03
2022-10-04T15:42:13.073Z,58.09
2022-10-04T15:45:18.042Z,59.25
